sensor_id;sensor_type;location;lat;lon;timestamp;temperature;humidity
26907;DHT22;14472;56.880;16.658;2023-08-01T00:00:50;17.50;94.00
26907;DHT22;14472;56.880;16.658;2023-08-01T00:03:15;17.50;93.80
26907;DHT22;14472;56.880;16.658;2023-08-01T00:05:41;17.50;93.00
26907;DHT22;14472;56.880;16.658;2023-08-01T00:08:11;17.50;93.80
26907;DHT22;14472;56.880;16.658;2023-08-01T00:10:38;17.50;93.70
26907;DHT22;14472;56.880;16.658;2023-08-01T00:13:04;17.40;93.70
26907;DHT22;14472;56.880;16.658;2023-08-01T00:15:30;17.50;93.80
26907;DHT22;14472;56.880;16.658;2023-08-01T00:17:56;17.40;93.70
26907;DHT22;14472;56.880;16.658;2023-08-01T00:20:22;17.40;92.70
26907;DHT22;14472;56.880;16.658;2023-08-01T00:22:47;17.40;91.10
26907;DHT22;14472;56.880;16.658;2023-08-01T00:25:13;17.40;90.70
26907;DHT22;14472;56.880;16.658;2023-08-01T00:27:39;17.40;90.70
26907;DHT22;14472;56.880;16.658;2023-08-01T00:30:05;17.40;88.70
26907;DHT22;14472;56.880;16.658;2023-08-01T00:32:31;17.30;86.10
26907;DHT22;14472;56.880;16.658;2023-08-01T00:34:57;17.30;90.00
26907;DHT22;14472;56.880;16.658;2023-08-01T00:37:23;17.30;88.10
26907;DHT22;14472;56.880;16.658;2023-08-01T00:39:48;17.30;91.20
26907;DHT22;14472;56.880;16.658;2023-08-01T00:42:15;17.30;93.80
26907;DHT22;14472;56.880;16.658;2023-08-01T00:44:41;17.30;95.10
26907;DHT22;14472;56.880;16.658;2023-08-01T00:47:07;17.30;96.50
26907;DHT22;14472;56.880;16.658;2023-08-01T00:49:33;17.30;94.60
26907;DHT22;14472;56.880;16.658;2023-08-01T00:51:59;17.30;98.00
26907;DHT22;14472;56.880;16.658;2023-08-01T00:54:25;17.20;99.50
26907;DHT22;14472;56.880;16.658;2023-08-01T00:56:51;17.30;99.90
26907;DHT22;14472;56.880;16.658;2023-08-01T00:59:17;17.30;99.90
26907;DHT22;14472;56.880;16.658;2023-08-01T01:01:43;17.30;99.90
26907;DHT22;14472;56.880;16.658;2023-08-01T01:04:08;17.30;99.90
26907;DHT22;14472;56.880;16.658;2023-08-01T01:09:17;17.30;99.90
26907;DHT22;14472;56.880;16.658;2023-08-01T01:11:44;17.20;99.90
26907;DHT22;14472;56.880;16.658;2023-08-01T01:14:10;17.20;99.90
26907;DHT22;14472;56.880;16.658;2023-08-01T01:16:36;17.20;99.90
26907;DHT22;14472;56.880;16.658;2023-08-01T01:19:01;17.20;99.90
26907;DHT22;14472;56.880;16.658;2023-08-01T01:21:28;17.20;99.90
26907;DHT22;14472;56.880;16.658;2023-08-01T01:23:54;17.20;99.90
26907;DHT22;14472;56.880;16.658;2023-08-01T01:26:21;17.20;99.50
26907;DHT22;14472;56.880;16.658;2023-08-01T01:28:48;17.10;99.40
26907;DHT22;14472;56.880;16.658;2023-08-01T01:31:15;17.20;99.90
26907;DHT22;14472;56.880;16.658;2023-08-01T01:33:42;17.10;99.90
26907;DHT22;14472;56.880;16.658;2023-08-01T01:36:08;17.10;99.90
26907;DHT22;14472;56.880;16.658;2023-08-01T01:38:33;17.10;99.90
26907;DHT22;14472;56.880;16.658;2023-08-01T01:40:59;17.10;99.90
26907;DHT22;14472;56.880;16.658;2023-08-01T01:43:25;17.00;99.90
26907;DHT22;14472;56.880;16.658;2023-08-01T01:45:51;17.10;99.90
26907;DHT22;14472;56.880;16.658;2023-08-01T01:48:16;17.10;99.90
26907;DHT22;14472;56.880;16.658;2023-08-01T01:50:42;17.10;99.90
26907;DHT22;14472;56.880;16.658;2023-08-01T01:53:08;17.10;99.90
26907;DHT22;14472;56.880;16.658;2023-08-01T01:55:33;17.00;99.90
26907;DHT22;14472;56.880;16.658;2023-08-01T01:58:00;17.00;99.90
26907;DHT22;14472;56.880;16.658;2023-08-01T02:00:25;17.00;99.90
26907;DHT22;14472;56.880;16.658;2023-08-01T02:02:51;17.00;99.90
26907;DHT22;14472;56.880;16.658;2023-08-01T02:05:17;17.00;99.90
26907;DHT22;14472;56.880;16.658;2023-08-01T02:07:43;17.00;99.90
26907;DHT22;14472;56.880;16.658;2023-08-01T02:10:09;17.00;99.90
26907;DHT22;14472;56.880;16.658;2023-08-01T02:12:34;17.00;99.90
26907;DHT22;14472;56.880;16.658;2023-08-01T02:15:01;16.90;99.90
26907;DHT22;14472;56.880;16.658;2023-08-01T02:17:27;16.90;99.90
26907;DHT22;14472;56.880;16.658;2023-08-01T02:19:53;16.90;99.90
26907;DHT22;14472;56.880;16.658;2023-08-01T02:22:18;16.90;99.90
26907;DHT22;14472;56.880;16.658;2023-08-01T02:24:44;16.90;99.90
26907;DHT22;14472;56.880;16.658;2023-08-01T02:27:10;16.90;99.90
26907;DHT22;14472;56.880;16.658;2023-08-01T02:29:35;16.90;99.90
26907;DHT22;14472;56.880;16.658;2023-08-01T02:32:01;16.90;99.90
26907;DHT22;14472;56.880;16.658;2023-08-01T02:34:27;16.90;99.90
26907;DHT22;14472;56.880;16.658;2023-08-01T02:36:53;16.90;99.90
26907;DHT22;14472;56.880;16.658;2023-08-01T02:39:19;16.90;99.90
26907;DHT22;14472;56.880;16.658;2023-08-01T02:41:44;16.90;99.90
26907;DHT22;14472;56.880;16.658;2023-08-01T02:44:10;16.90;99.90
26907;DHT22;14472;56.880;16.658;2023-08-01T02:46:36;16.90;99.90
26907;DHT22;14472;56.880;16.658;2023-08-01T02:49:01;16.90;99.90
26907;DHT22;14472;56.880;16.658;2023-08-01T02:51:28;16.90;99.90
26907;DHT22;14472;56.880;16.658;2023-08-01T02:53:54;16.90;99.90
26907;DHT22;14472;56.880;16.658;2023-08-01T02:56:19;16.90;99.90
26907;DHT22;14472;56.880;16.658;2023-08-01T02:58:45;16.90;99.90
26907;DHT22;14472;56.880;16.658;2023-08-01T03:01:11;16.90;99.90
26907;DHT22;14472;56.880;16.658;2023-08-01T03:03:39;16.90;99.90
26907;DHT22;14472;56.880;16.658;2023-08-01T03:06:05;16.90;99.90
26907;DHT22;14472;56.880;16.658;2023-08-01T03:08:31;16.90;99.90
26907;DHT22;14472;56.880;16.658;2023-08-01T03:10:58;16.90;99.90
26907;DHT22;14472;56.880;16.658;2023-08-01T03:13:23;16.80;99.90
26907;DHT22;14472;56.880;16.658;2023-08-01T03:15:49;16.80;99.90
26907;DHT22;14472;56.880;16.658;2023-08-01T03:18:15;16.80;99.90
26907;DHT22;14472;56.880;16.658;2023-08-01T03:20:40;16.80;99.90
26907;DHT22;14472;56.880;16.658;2023-08-01T03:23:06;16.80;99.90
26907;DHT22;14472;56.880;16.658;2023-08-01T03:25:32;16.80;99.90
26907;DHT22;14472;56.880;16.658;2023-08-01T03:27:58;16.80;99.90
26907;DHT22;14472;56.880;16.658;2023-08-01T03:30:24;16.80;99.90
26907;DHT22;14472;56.880;16.658;2023-08-01T03:32:51;16.80;99.90
26907;DHT22;14472;56.880;16.658;2023-08-01T03:35:17;16.80;99.90
26907;DHT22;14472;56.880;16.658;2023-08-01T03:37:43;16.80;99.90
26907;DHT22;14472;56.880;16.658;2023-08-01T03:40:09;16.80;99.90
26907;DHT22;14472;56.880;16.658;2023-08-01T03:42:36;16.80;99.90
26907;DHT22;14472;56.880;16.658;2023-08-01T03:45:03;16.80;99.90
26907;DHT22;14472;56.880;16.658;2023-08-01T03:47:29;16.80;99.90
26907;DHT22;14472;56.880;16.658;2023-08-01T03:49:55;16.80;99.90
26907;DHT22;14472;56.880;16.658;2023-08-01T03:52:21;16.80;99.90
26907;DHT22;14472;56.880;16.658;2023-08-01T03:54:48;16.80;99.90
26907;DHT22;14472;56.880;16.658;2023-08-01T03:57:14;16.80;99.90
26907;DHT22;14472;56.880;16.658;2023-08-01T03:59:40;16.80;99.90
26907;DHT22;14472;56.880;16.658;2023-08-01T04:02:05;16.80;99.90
26907;DHT22;14472;56.880;16.658;2023-08-01T04:04:31;16.90;99.90
26907;DHT22;14472;56.880;16.658;2023-08-01T04:06:57;16.90;99.90
26907;DHT22;14472;56.880;16.658;2023-08-01T04:09:23;16.90;99.90
26907;DHT22;14472;56.880;16.658;2023-08-01T04:11:48;16.90;99.90
26907;DHT22;14472;56.880;16.658;2023-08-01T04:14:14;16.90;99.90
26907;DHT22;14472;56.880;16.658;2023-08-01T04:16:40;16.90;99.90
26907;DHT22;14472;56.880;16.658;2023-08-01T04:19:06;16.90;99.90
26907;DHT22;14472;56.880;16.658;2023-08-01T04:21:31;16.90;99.90
26907;DHT22;14472;56.880;16.658;2023-08-01T04:23:57;17.00;99.90
26907;DHT22;14472;56.880;16.658;2023-08-01T04:26:23;17.00;99.90
26907;DHT22;14472;56.880;16.658;2023-08-01T04:28:49;17.00;99.90
26907;DHT22;14472;56.880;16.658;2023-08-01T04:31:14;17.10;99.90
26907;DHT22;14472;56.880;16.658;2023-08-01T04:33:40;17.10;99.90
26907;DHT22;14472;56.880;16.658;2023-08-01T04:36:06;17.10;99.90
26907;DHT22;14472;56.880;16.658;2023-08-01T04:38:32;17.20;99.90
26907;DHT22;14472;56.880;16.658;2023-08-01T04:40:57;17.20;99.90
26907;DHT22;14472;56.880;16.658;2023-08-01T04:43:25;17.20;99.90
26907;DHT22;14472;56.880;16.658;2023-08-01T04:45:51;17.20;99.90
26907;DHT22;14472;56.880;16.658;2023-08-01T04:48:17;17.20;99.90
26907;DHT22;14472;56.880;16.658;2023-08-01T04:50:42;17.20;99.90
26907;DHT22;14472;56.880;16.658;2023-08-01T04:53:12;17.20;99.90
26907;DHT22;14472;56.880;16.658;2023-08-01T04:55:37;17.30;99.90
26907;DHT22;14472;56.880;16.658;2023-08-01T04:58:03;17.30;99.90
26907;DHT22;14472;56.880;16.658;2023-08-01T05:00:29;17.30;99.90
26907;DHT22;14472;56.880;16.658;2023-08-01T05:02:55;17.40;99.90
26907;DHT22;14472;56.880;16.658;2023-08-01T05:05:21;17.40;99.90
26907;DHT22;14472;56.880;16.658;2023-08-01T05:07:46;17.40;99.90
26907;DHT22;14472;56.880;16.658;2023-08-01T05:10:12;17.40;99.90
26907;DHT22;14472;56.880;16.658;2023-08-01T05:12:38;17.40;99.90
26907;DHT22;14472;56.880;16.658;2023-08-01T05:15:04;17.40;99.90
26907;DHT22;14472;56.880;16.658;2023-08-01T05:17:30;17.40;99.90
26907;DHT22;14472;56.880;16.658;2023-08-01T05:19:55;17.50;99.90
26907;DHT22;14472;56.880;16.658;2023-08-01T05:22:21;17.50;99.90
26907;DHT22;14472;56.880;16.658;2023-08-01T05:24:47;17.50;99.90
26907;DHT22;14472;56.880;16.658;2023-08-01T05:27:13;17.60;99.90
26907;DHT22;14472;56.880;16.658;2023-08-01T05:29:38;17.60;99.90
26907;DHT22;14472;56.880;16.658;2023-08-01T05:32:04;17.60;99.90
26907;DHT22;14472;56.880;16.658;2023-08-01T05:34:30;17.70;99.90
26907;DHT22;14472;56.880;16.658;2023-08-01T05:36:56;17.70;99.90
26907;DHT22;14472;56.880;16.658;2023-08-01T05:39:21;17.70;99.90
26907;DHT22;14472;56.880;16.658;2023-08-01T05:41:47;17.70;99.90
26907;DHT22;14472;56.880;16.658;2023-08-01T05:44:13;17.70;99.90
26907;DHT22;14472;56.880;16.658;2023-08-01T05:46:39;17.80;99.90
26907;DHT22;14472;56.880;16.658;2023-08-01T05:49:04;17.80;99.90
26907;DHT22;14472;56.880;16.658;2023-08-01T05:51:30;17.80;99.90
26907;DHT22;14472;56.880;16.658;2023-08-01T05:53:56;17.80;99.90
26907;DHT22;14472;56.880;16.658;2023-08-01T05:56:21;17.80;99.90
26907;DHT22;14472;56.880;16.658;2023-08-01T05:58:47;17.80;99.90
26907;DHT22;14472;56.880;16.658;2023-08-01T06:01:14;17.90;99.90
26907;DHT22;14472;56.880;16.658;2023-08-01T06:03:39;17.90;99.90
26907;DHT22;14472;56.880;16.658;2023-08-01T06:06:05;17.90;99.90
26907;DHT22;14472;56.880;16.658;2023-08-01T06:08:31;17.90;99.90
26907;DHT22;14472;56.880;16.658;2023-08-01T06:10:57;17.90;99.90
26907;DHT22;14472;56.880;16.658;2023-08-01T06:13:22;18.00;99.90
26907;DHT22;14472;56.880;16.658;2023-08-01T06:15:48;18.00;99.90
26907;DHT22;14472;56.880;16.658;2023-08-01T06:18:14;18.00;99.90
26907;DHT22;14472;56.880;16.658;2023-08-01T06:20:39;18.00;99.90
26907;DHT22;14472;56.880;16.658;2023-08-01T06:23:05;18.00;99.90
26907;DHT22;14472;56.880;16.658;2023-08-01T06:25:31;18.00;99.90
26907;DHT22;14472;56.880;16.658;2023-08-01T06:27:57;18.00;99.90
26907;DHT22;14472;56.880;16.658;2023-08-01T06:30:22;18.00;99.90
26907;DHT22;14472;56.880;16.658;2023-08-01T06:32:48;18.00;99.90
26907;DHT22;14472;56.880;16.658;2023-08-01T06:35:14;18.00;99.90
26907;DHT22;14472;56.880;16.658;2023-08-01T06:37:40;18.00;99.90
26907;DHT22;14472;56.880;16.658;2023-08-01T06:40:06;18.00;99.90
26907;DHT22;14472;56.880;16.658;2023-08-01T06:42:33;18.00;99.90
26907;DHT22;14472;56.880;16.658;2023-08-01T06:44:59;18.00;99.90
26907;DHT22;14472;56.880;16.658;2023-08-01T06:47:24;18.10;99.90
26907;DHT22;14472;56.880;16.658;2023-08-01T06:49:50;18.10;99.90
26907;DHT22;14472;56.880;16.658;2023-08-01T06:52:16;18.10;99.90
26907;DHT22;14472;56.880;16.658;2023-08-01T06:54:42;18.10;99.90
26907;DHT22;14472;56.880;16.658;2023-08-01T06:57:08;18.10;99.90
26907;DHT22;14472;56.880;16.658;2023-08-01T06:59:33;18.10;99.90
26907;DHT22;14472;56.880;16.658;2023-08-01T07:01:59;18.20;99.90
26907;DHT22;14472;56.880;16.658;2023-08-01T07:04:25;18.20;99.90
26907;DHT22;14472;56.880;16.658;2023-08-01T07:06:51;18.20;99.90
26907;DHT22;14472;56.880;16.658;2023-08-01T07:09:17;18.20;99.90
26907;DHT22;14472;56.880;16.658;2023-08-01T07:11:42;18.20;99.90
26907;DHT22;14472;56.880;16.658;2023-08-01T07:14:08;18.20;99.90
26907;DHT22;14472;56.880;16.658;2023-08-01T07:16:34;18.20;99.90
26907;DHT22;14472;56.880;16.658;2023-08-01T07:19:01;18.20;99.90
26907;DHT22;14472;56.880;16.658;2023-08-01T07:21:26;18.20;99.90
26907;DHT22;14472;56.880;16.658;2023-08-01T07:23:52;18.20;99.90
26907;DHT22;14472;56.880;16.658;2023-08-01T07:26:18;18.30;99.90
26907;DHT22;14472;56.880;16.658;2023-08-01T07:28:44;18.30;99.90
26907;DHT22;14472;56.880;16.658;2023-08-01T07:31:09;18.30;99.90
26907;DHT22;14472;56.880;16.658;2023-08-01T07:33:35;18.40;99.90
26907;DHT22;14472;56.880;16.658;2023-08-01T07:36:01;18.40;99.90
26907;DHT22;14472;56.880;16.658;2023-08-01T07:38:27;18.50;99.90
26907;DHT22;14472;56.880;16.658;2023-08-01T07:40:54;18.40;99.90
26907;DHT22;14472;56.880;16.658;2023-08-01T07:43:20;18.50;99.90
26907;DHT22;14472;56.880;16.658;2023-08-01T07:45:46;18.50;99.90
26907;DHT22;14472;56.880;16.658;2023-08-01T07:48:15;18.60;99.90
26907;DHT22;14472;56.880;16.658;2023-08-01T07:50:41;18.60;99.90
26907;DHT22;14472;56.880;16.658;2023-08-01T07:53:07;18.60;99.90
26907;DHT22;14472;56.880;16.658;2023-08-01T07:55:36;18.60;99.90
26907;DHT22;14472;56.880;16.658;2023-08-01T07:58:01;18.60;99.90
26907;DHT22;14472;56.880;16.658;2023-08-01T08:00:27;18.60;99.90
26907;DHT22;14472;56.880;16.658;2023-08-01T08:02:53;18.60;99.90
26907;DHT22;14472;56.880;16.658;2023-08-01T08:05:19;18.70;99.90
26907;DHT22;14472;56.880;16.658;2023-08-01T08:07:45;18.70;99.90
26907;DHT22;14472;56.880;16.658;2023-08-01T08:10:11;18.70;99.90
26907;DHT22;14472;56.880;16.658;2023-08-01T08:12:36;18.70;99.90
26907;DHT22;14472;56.880;16.658;2023-08-01T08:15:03;18.70;99.90
26907;DHT22;14472;56.880;16.658;2023-08-01T08:17:28;18.70;99.90
26907;DHT22;14472;56.880;16.658;2023-08-01T08:19:54;18.80;99.90
26907;DHT22;14472;56.880;16.658;2023-08-01T08:22:20;18.80;99.90
26907;DHT22;14472;56.880;16.658;2023-08-01T08:24:45;18.80;99.90
26907;DHT22;14472;56.880;16.658;2023-08-01T08:27:11;18.80;99.90
26907;DHT22;14472;56.880;16.658;2023-08-01T08:29:38;18.90;99.90
26907;DHT22;14472;56.880;16.658;2023-08-01T08:32:04;18.80;99.90
26907;DHT22;14472;56.880;16.658;2023-08-01T08:34:30;18.80;99.90
26907;DHT22;14472;56.880;16.658;2023-08-01T08:36:55;18.80;99.90
26907;DHT22;14472;56.880;16.658;2023-08-01T08:39:21;18.80;99.90
26907;DHT22;14472;56.880;16.658;2023-08-01T08:41:50;18.90;99.90
26907;DHT22;14472;56.880;16.658;2023-08-01T08:44:16;18.80;99.90
26907;DHT22;14472;56.880;16.658;2023-08-01T08:46:44;18.80;99.90
26907;DHT22;14472;56.880;16.658;2023-08-01T08:49:10;18.90;99.90
26907;DHT22;14472;56.880;16.658;2023-08-01T08:51:37;18.90;99.90
26907;DHT22;14472;56.880;16.658;2023-08-01T08:54:05;18.80;99.90
26907;DHT22;14472;56.880;16.658;2023-08-01T08:56:31;18.80;99.90
26907;DHT22;14472;56.880;16.658;2023-08-01T08:58:59;18.80;99.90
26907;DHT22;14472;56.880;16.658;2023-08-01T09:01:26;18.90;99.90
26907;DHT22;14472;56.880;16.658;2023-08-01T09:03:52;18.90;99.90
26907;DHT22;14472;56.880;16.658;2023-08-01T09:06:23;18.90;99.90
26907;DHT22;14472;56.880;16.658;2023-08-01T09:09:02;18.90;99.90
26907;DHT22;14472;56.880;16.658;2023-08-01T09:11:42;18.90;99.90
26907;DHT22;14472;56.880;16.658;2023-08-01T09:14:09;19.00;99.90
26907;DHT22;14472;56.880;16.658;2023-08-01T09:16:35;18.90;99.90
26907;DHT22;14472;56.880;16.658;2023-08-01T09:19:01;18.90;99.90
26907;DHT22;14472;56.880;16.658;2023-08-01T09:21:32;19.00;99.90
26907;DHT22;14472;56.880;16.658;2023-08-01T09:24:19;18.90;99.90
26907;DHT22;14472;56.880;16.658;2023-08-01T09:26:46;18.90;99.90
26907;DHT22;14472;56.880;16.658;2023-08-01T09:29:12;18.90;99.90
26907;DHT22;14472;56.880;16.658;2023-08-01T09:31:42;18.90;99.90
26907;DHT22;14472;56.880;16.658;2023-08-01T09:34:25;18.90;99.90
26907;DHT22;14472;56.880;16.658;2023-08-01T09:36:57;18.90;99.90
26907;DHT22;14472;56.880;16.658;2023-08-01T09:39:23;18.90;99.90
26907;DHT22;14472;56.880;16.658;2023-08-01T09:41:59;18.90;99.90
26907;DHT22;14472;56.880;16.658;2023-08-01T09:44:26;18.90;99.90
26907;DHT22;14472;56.880;16.658;2023-08-01T09:47:00;18.90;99.90
26907;DHT22;14472;56.880;16.658;2023-08-01T09:49:27;18.90;99.90
26907;DHT22;14472;56.880;16.658;2023-08-01T09:51:53;18.90;99.90
26907;DHT22;14472;56.880;16.658;2023-08-01T09:54:21;18.90;99.90
26907;DHT22;14472;56.880;16.658;2023-08-01T09:56:52;18.90;99.90
26907;DHT22;14472;56.880;16.658;2023-08-01T10:01:47;18.90;99.90
26907;DHT22;14472;56.880;16.658;2023-08-01T10:04:14;18.90;99.90
26907;DHT22;14472;56.880;16.658;2023-08-01T10:06:43;18.90;99.90
26907;DHT22;14472;56.880;16.658;2023-08-01T10:09:12;18.90;99.90
26907;DHT22;14472;56.880;16.658;2023-08-01T10:11:39;18.90;99.90
26907;DHT22;14472;56.880;16.658;2023-08-01T10:14:06;18.80;99.90
26907;DHT22;14472;56.880;16.658;2023-08-01T10:16:33;18.70;99.90
26907;DHT22;14472;56.880;16.658;2023-08-01T10:18:59;18.70;99.90
26907;DHT22;14472;56.880;16.658;2023-08-01T10:21:26;18.80;99.90
26907;DHT22;14472;56.880;16.658;2023-08-01T10:23:54;18.80;99.90
26907;DHT22;14472;56.880;16.658;2023-08-01T10:26:20;18.70;99.90
26907;DHT22;14472;56.880;16.658;2023-08-01T10:28:51;18.80;99.90
26907;DHT22;14472;56.880;16.658;2023-08-01T10:31:18;18.80;99.90
26907;DHT22;14472;56.880;16.658;2023-08-01T10:33:46;18.80;99.90
26907;DHT22;14472;56.880;16.658;2023-08-01T10:38:54;18.80;99.90
26907;DHT22;14472;56.880;16.658;2023-08-01T10:41:36;18.90;99.90
26907;DHT22;14472;56.880;16.658;2023-08-01T10:44:16;18.90;99.90
26907;DHT22;14472;56.880;16.658;2023-08-01T10:46:59;18.90;99.90
26907;DHT22;14472;56.880;16.658;2023-08-01T10:52:22;18.90;99.90
26907;DHT22;14472;56.880;16.658;2023-08-01T10:54:57;18.90;99.90
26907;DHT22;14472;56.880;16.658;2023-08-01T10:57:26;18.90;99.90
26907;DHT22;14472;56.880;16.658;2023-08-01T10:59:52;18.90;99.90
26907;DHT22;14472;56.880;16.658;2023-08-01T11:02:23;19.00;99.90
26907;DHT22;14472;56.880;16.658;2023-08-01T11:04:59;19.00;99.90
26907;DHT22;14472;56.880;16.658;2023-08-01T11:07:26;19.00;99.90
26907;DHT22;14472;56.880;16.658;2023-08-01T11:10:11;19.00;99.90
26907;DHT22;14472;56.880;16.658;2023-08-01T11:12:38;19.00;99.90
26907;DHT22;14472;56.880;16.658;2023-08-01T11:15:06;19.00;99.90
26907;DHT22;14472;56.880;16.658;2023-08-01T11:17:34;19.00;99.90
26907;DHT22;14472;56.880;16.658;2023-08-01T11:20:07;19.00;99.90
26907;DHT22;14472;56.880;16.658;2023-08-01T11:22:37;19.00;99.90
26907;DHT22;14472;56.880;16.658;2023-08-01T11:25:04;19.10;99.90
26907;DHT22;14472;56.880;16.658;2023-08-01T11:27:30;19.00;99.90
26907;DHT22;14472;56.880;16.658;2023-08-01T11:29:56;19.10;99.90
26907;DHT22;14472;56.880;16.658;2023-08-01T11:32:35;19.00;99.90
26907;DHT22;14472;56.880;16.658;2023-08-01T11:35:02;19.00;99.90
26907;DHT22;14472;56.880;16.658;2023-08-01T11:37:28;19.10;99.90
26907;DHT22;14472;56.880;16.658;2023-08-01T11:39:55;19.10;99.90
26907;DHT22;14472;56.880;16.658;2023-08-01T11:42:21;19.00;99.90
26907;DHT22;14472;56.880;16.658;2023-08-01T11:44:46;19.10;99.90
26907;DHT22;14472;56.880;16.658;2023-08-01T11:47:16;19.10;99.90
26907;DHT22;14472;56.880;16.658;2023-08-01T11:49:46;19.10;99.90
26907;DHT22;14472;56.880;16.658;2023-08-01T11:52:26;19.10;99.90
26907;DHT22;14472;56.880;16.658;2023-08-01T11:54:52;19.10;99.90
26907;DHT22;14472;56.880;16.658;2023-08-01T11:57:20;19.00;99.90
26907;DHT22;14472;56.880;16.658;2023-08-01T11:59:48;19.00;99.90
26907;DHT22;14472;56.880;16.658;2023-08-01T12:02:28;19.00;99.90
26907;DHT22;14472;56.880;16.658;2023-08-01T12:04:57;19.00;99.90
26907;DHT22;14472;56.880;16.658;2023-08-01T12:07:25;19.00;99.90
26907;DHT22;14472;56.880;16.658;2023-08-01T12:09:59;19.00;99.90
26907;DHT22;14472;56.880;16.658;2023-08-01T12:12:28;19.00;99.90
26907;DHT22;14472;56.880;16.658;2023-08-01T12:14:55;19.00;99.90
26907;DHT22;14472;56.880;16.658;2023-08-01T12:17:24;19.00;99.90
26907;DHT22;14472;56.880;16.658;2023-08-01T12:19:50;19.00;99.90
26907;DHT22;14472;56.880;16.658;2023-08-01T12:22:15;19.00;99.90
26907;DHT22;14472;56.880;16.658;2023-08-01T12:24:41;19.00;99.90
26907;DHT22;14472;56.880;16.658;2023-08-01T12:27:08;19.00;99.90
26907;DHT22;14472;56.880;16.658;2023-08-01T12:29:34;19.00;99.90
26907;DHT22;14472;56.880;16.658;2023-08-01T12:32:04;19.00;99.90
26907;DHT22;14472;56.880;16.658;2023-08-01T12:34:32;19.00;99.90
26907;DHT22;14472;56.880;16.658;2023-08-01T12:36:58;19.00;99.90
26907;DHT22;14472;56.880;16.658;2023-08-01T12:39:23;19.00;99.90
26907;DHT22;14472;56.880;16.658;2023-08-01T12:41:52;19.00;99.90
26907;DHT22;14472;56.880;16.658;2023-08-01T12:44:20;19.00;99.90
26907;DHT22;14472;56.880;16.658;2023-08-01T12:46:46;19.00;99.90
26907;DHT22;14472;56.880;16.658;2023-08-01T12:49:12;19.10;99.90
26907;DHT22;14472;56.880;16.658;2023-08-01T12:51:37;19.10;99.90
26907;DHT22;14472;56.880;16.658;2023-08-01T12:54:04;19.20;99.90
26907;DHT22;14472;56.880;16.658;2023-08-01T12:56:30;19.20;99.90
26907;DHT22;14472;56.880;16.658;2023-08-01T12:58:56;19.20;99.90
26907;DHT22;14472;56.880;16.658;2023-08-01T13:01:22;19.20;99.90
26907;DHT22;14472;56.880;16.658;2023-08-01T13:03:48;19.30;99.90
26907;DHT22;14472;56.880;16.658;2023-08-01T13:06:13;19.30;99.90
26907;DHT22;14472;56.880;16.658;2023-08-01T13:08:39;19.40;99.90
26907;DHT22;14472;56.880;16.658;2023-08-01T13:11:15;19.40;99.90
26907;DHT22;14472;56.880;16.658;2023-08-01T13:13:41;19.50;99.90
26907;DHT22;14472;56.880;16.658;2023-08-01T13:16:07;19.60;99.90
26907;DHT22;14472;56.880;16.658;2023-08-01T13:18:33;19.60;99.90
26907;DHT22;14472;56.880;16.658;2023-08-01T13:21:00;19.70;99.90
26907;DHT22;14472;56.880;16.658;2023-08-01T13:23:26;19.70;99.90
26907;DHT22;14472;56.880;16.658;2023-08-01T13:25:52;19.70;99.90
26907;DHT22;14472;56.880;16.658;2023-08-01T13:28:18;19.70;99.90
26907;DHT22;14472;56.880;16.658;2023-08-01T13:30:43;19.70;99.90
26907;DHT22;14472;56.880;16.658;2023-08-01T13:33:09;19.80;99.90
26907;DHT22;14472;56.880;16.658;2023-08-01T13:35:38;19.80;99.90
26907;DHT22;14472;56.880;16.658;2023-08-01T13:38:04;19.80;99.90
26907;DHT22;14472;56.880;16.658;2023-08-01T13:40:30;19.80;99.90
26907;DHT22;14472;56.880;16.658;2023-08-01T13:42:56;19.80;99.90
26907;DHT22;14472;56.880;16.658;2023-08-01T13:45:22;19.80;99.90
26907;DHT22;14472;56.880;16.658;2023-08-01T13:47:52;19.80;99.90
26907;DHT22;14472;56.880;16.658;2023-08-01T13:50:17;19.80;99.90
26907;DHT22;14472;56.880;16.658;2023-08-01T13:52:43;19.80;99.90
26907;DHT22;14472;56.880;16.658;2023-08-01T13:55:09;19.90;99.90
26907;DHT22;14472;56.880;16.658;2023-08-01T13:57:35;19.80;99.90
26907;DHT22;14472;56.880;16.658;2023-08-01T14:00:01;19.90;99.90
26907;DHT22;14472;56.880;16.658;2023-08-01T14:02:27;19.90;99.90
26907;DHT22;14472;56.880;16.658;2023-08-01T14:04:54;19.90;99.90
26907;DHT22;14472;56.880;16.658;2023-08-01T14:07:20;19.90;99.90
26907;DHT22;14472;56.880;16.658;2023-08-01T14:09:46;19.90;99.90
26907;DHT22;14472;56.880;16.658;2023-08-01T14:12:13;19.80;99.90
26907;DHT22;14472;56.880;16.658;2023-08-01T14:14:41;19.90;99.90
26907;DHT22;14472;56.880;16.658;2023-08-01T14:17:07;19.90;99.90
26907;DHT22;14472;56.880;16.658;2023-08-01T14:19:33;19.90;99.90
26907;DHT22;14472;56.880;16.658;2023-08-01T14:21:58;20.00;99.90
26907;DHT22;14472;56.880;16.658;2023-08-01T14:24:24;20.00;99.90
26907;DHT22;14472;56.880;16.658;2023-08-01T14:26:50;20.00;99.90
26907;DHT22;14472;56.880;16.658;2023-08-01T14:29:20;20.10;99.90
26907;DHT22;14472;56.880;16.658;2023-08-01T14:31:51;20.10;99.90
26907;DHT22;14472;56.880;16.658;2023-08-01T14:34:17;20.10;99.90
26907;DHT22;14472;56.880;16.658;2023-08-01T14:36:42;20.20;99.90
26907;DHT22;14472;56.880;16.658;2023-08-01T14:39:08;20.20;99.90
26907;DHT22;14472;56.880;16.658;2023-08-01T14:41:34;20.20;99.90
26907;DHT22;14472;56.880;16.658;2023-08-01T14:44:00;20.20;99.90
26907;DHT22;14472;56.880;16.658;2023-08-01T14:46:25;20.30;99.90
26907;DHT22;14472;56.880;16.658;2023-08-01T14:48:51;20.30;99.90
26907;DHT22;14472;56.880;16.658;2023-08-01T14:51:17;20.20;99.90
26907;DHT22;14472;56.880;16.658;2023-08-01T14:53:42;20.20;99.90
26907;DHT22;14472;56.880;16.658;2023-08-01T14:56:08;20.30;99.90
26907;DHT22;14472;56.880;16.658;2023-08-01T14:58:34;20.30;99.90
26907;DHT22;14472;56.880;16.658;2023-08-01T15:01:05;20.30;99.90
26907;DHT22;14472;56.880;16.658;2023-08-01T15:03:31;20.30;99.90
26907;DHT22;14472;56.880;16.658;2023-08-01T15:06:05;20.30;99.90
26907;DHT22;14472;56.880;16.658;2023-08-01T15:08:31;20.30;99.90
26907;DHT22;14472;56.880;16.658;2023-08-01T15:10:57;20.30;99.90
26907;DHT22;14472;56.880;16.658;2023-08-01T15:13:22;20.40;99.90
26907;DHT22;14472;56.880;16.658;2023-08-01T15:15:48;20.50;99.90
26907;DHT22;14472;56.880;16.658;2023-08-01T15:18:14;20.60;99.90
26907;DHT22;14472;56.880;16.658;2023-08-01T15:20:40;20.60;99.90
26907;DHT22;14472;56.880;16.658;2023-08-01T15:23:07;20.60;99.90